sensor_id;sensor_type;location;lat;lon;timestamp;pressure;altitude;pressure_sealevel;temperature;humidity
21781;BME280;52576;53.614;9.894;2023-02-13T00:00:24;103575.53;;;6.47;89.59
21781;BME280;52576;53.614;9.894;2023-02-13T00:02:27;103575.53;;;6.47;89.62
21781;BME280;52576;53.614;9.894;2023-02-13T00:04:30;103574.66;;;6.46;89.63
21781;BME280;52576;53.614;9.894;2023-02-13T00:06:35;103581.63;;;6.46;89.67
21781;BME280;52576;53.614;9.894;2023-02-13T00:08:38;103572.94;;;6.45;89.58
21781;BME280;52576;53.614;9.894;2023-02-13T00:10:41;103584.22;;;6.46;89.57
21781;BME280;52576;53.614;9.894;2023-02-13T00:12:44;103586.81;;;6.47;89.69
21781;BME280;52576;53.614;9.894;2023-02-13T00:14:47;103579.00;;;6.47;89.72
21781;BME280;52576;53.614;9.894;2023-02-13T00:16:50;103585.09;;;6.46;89.79
21781;BME280;52576;53.614;9.894;2023-02-13T00:18:53;103581.59;;;6.47;89.81
21781;BME280;52576;53.614;9.894;2023-02-13T00:21:01;103581.59;;;6.47;89.71
21781;BME280;52576;53.614;9.894;2023-02-13T00:23:06;103580.75;;;6.47;89.82
21781;BME280;52576;53.614;9.894;2023-02-13T00:25:09;103574.66;;;6.46;89.89
21781;BME280;52576;53.614;9.894;2023-02-13T00:27:13;103572.06;;;6.45;89.77
21781;BME280;52576;53.614;9.894;2023-02-13T00:29:16;103566.84;;;6.45;89.70
21781;BME280;52576;53.614;9.894;2023-02-13T00:31:20;103566.00;;;6.44;89.71
21781;BME280;52576;53.614;9.894;2023-02-13T00:33:23;103570.34;;;6.44;89.78
21781;BME280;52576;53.614;9.894;2023-02-13T00:35:26;103562.53;;;6.42;89.90
21781;BME280;52576;53.614;9.894;2023-02-13T00:37:29;103556.44;;;6.43;89.81
21781;BME280;52576;53.614;9.894;2023-02-13T00:39:33;103555.59;;;6.41;89.72
21781;BME280;52576;53.614;9.894;2023-02-13T00:41:37;103566.88;;;6.40;89.83
21781;BME280;52576;53.614;9.894;2023-02-13T00:43:40;103566.88;;;6.40;89.74
21781;BME280;52576;53.614;9.894;2023-02-13T00:45:43;103567.75;;;6.39;89.85
21781;BME280;52576;53.614;9.894;2023-02-13T00:47:46;103562.53;;;6.39;89.83
21781;BME280;52576;53.614;9.894;2023-02-13T00:49:49;103566.00;;;6.38;89.79
21781;BME280;52576;53.614;9.894;2023-02-13T00:51:52;103562.53;;;6.39;89.69
21781;BME280;52576;53.614;9.894;2023-02-13T00:53:56;103562.53;;;6.39;89.72
21781;BME280;52576;53.614;9.894;2023-02-13T00:56:01;103563.41;;;6.40;89.72
21781;BME280;52576;53.614;9.894;2023-02-13T00:58:04;103566.00;;;6.38;89.76
21781;BME280;52576;53.614;9.894;2023-02-13T01:00:08;103559.94;;;6.39;89.78
21781;BME280;52576;53.614;9.894;2023-02-13T01:02:11;103561.66;;;6.39;89.76
21781;BME280;52576;53.614;9.894;2023-02-13T01:04:14;103566.00;;;6.40;89.73
21781;BME280;52576;53.614;9.894;2023-02-13T01:06:18;103562.53;;;6.39;89.76
21781;BME280;52576;53.614;9.894;2023-02-13T01:08:21;103558.19;;;6.40;89.72
21781;BME280;52576;53.614;9.894;2023-02-13T01:10:24;103562.53;;;6.39;89.71
21781;BME280;52576;53.614;9.894;2023-02-13T01:12:29;103566.00;;;6.38;89.60
21781;BME280;52576;53.614;9.894;2023-02-13T01:14:32;103564.28;;;6.39;89.61
21781;BME280;52576;53.614;9.894;2023-02-13T01:16:36;103558.19;;;6.38;89.61
21781;BME280;52576;53.614;9.894;2023-02-13T01:18:39;103554.72;;;6.38;89.79
21781;BME280;52576;53.614;9.894;2023-02-13T01:20:42;103552.97;;;6.38;89.67
21781;BME280;52576;53.614;9.894;2023-02-13T01:22:46;103548.66;;;6.37;89.60
21781;BME280;52576;53.614;9.894;2023-02-13T01:24:50;103558.19;;;6.37;89.70
21781;BME280;52576;53.614;9.894;2023-02-13T01:26:53;103559.94;;;6.36;89.51
21781;BME280;52576;53.614;9.894;2023-02-13T01:28:57;103558.22;;;6.35;89.57
21781;BME280;52576;53.614;9.894;2023-02-13T01:31:01;103552.13;;;6.33;89.53
21781;BME280;52576;53.614;9.894;2023-02-13T01:33:05;103552.13;;;6.33;89.44
21781;BME280;52576;53.614;9.894;2023-02-13T01:35:09;103555.63;;;6.32;89.33
21781;BME280;52576;53.614;9.894;2023-02-13T01:37:13;103552.13;;;6.33;89.44
21781;BME280;52576;53.614;9.894;2023-02-13T01:39:16;103549.53;;;6.32;89.47
21781;BME280;52576;53.614;9.894;2023-02-13T01:41:19;103541.72;;;6.33;89.53
21781;BME280;52576;53.614;9.894;2023-02-13T01:43:23;103542.59;;;6.34;89.40
21781;BME280;52576;53.614;9.894;2023-02-13T01:45:29;103540.84;;;6.34;89.44
21781;BME280;52576;53.614;9.894;2023-02-13T01:47:38;103537.38;;;6.34;89.48
21781;BME280;52576;53.614;9.894;2023-02-13T01:49:44;103538.25;;;6.34;89.35
21781;BME280;52576;53.614;9.894;2023-02-13T01:51:52;103531.28;;;6.33;89.46
21781;BME280;52576;53.614;9.894;2023-02-13T01:54:00;103529.56;;;6.32;89.35
21781;BME280;52576;53.614;9.894;2023-02-13T01:56:08;103529.56;;;6.32;89.32
21781;BME280;52576;53.614;9.894;2023-02-13T01:58:17;103524.34;;;6.32;89.24
21781;BME280;52576;53.614;9.894;2023-02-13T02:00:21;103528.69;;;6.32;89.07
21781;BME280;52576;53.614;9.894;2023-02-13T02:02:27;103522.63;;;6.31;89.08
21781;BME280;52576;53.614;9.894;2023-02-13T02:04:35;103523.50;;;6.30;89.02
21781;BME280;52576;53.614;9.894;2023-02-13T02:06:47;103518.28;;;6.29;88.97
21781;BME280;52576;53.614;9.894;2023-02-13T02:09:00;103513.09;;;6.27;88.82
21781;BME280;52576;53.614;9.894;2023-02-13T02:11:10;103516.56;;;6.26;88.76
21781;BME280;52576;53.614;9.894;2023-02-13T02:13:18;103517.44;;;6.27;88.57
21781;BME280;52576;53.614;9.894;2023-02-13T02:15:22;103518.31;;;6.26;88.54
21781;BME280;52576;53.614;9.894;2023-02-13T02:17:26;103515.72;;;6.24;88.64
21781;BME280;52576;53.614;9.894;2023-02-13T02:19:36;103512.22;;;6.25;88.49
21781;BME280;52576;53.614;9.894;2023-02-13T02:24:22;103510.50;;;6.24;88.45
21781;BME280;52576;53.614;9.894;2023-02-13T02:26:50;103506.16;;;6.25;88.26
21781;BME280;52576;53.614;9.894;2023-02-13T02:31:52;103506.16;;;6.25;88.27
21781;BME280;52576;53.614;9.894;2023-02-13T02:34:09;103512.22;;;6.25;88.10
21781;BME280;52576;53.614;9.894;2023-02-13T02:36:27;103507.88;;;6.26;88.11
21781;BME280;52576;53.614;9.894;2023-02-13T02:38:42;103514.81;;;6.27;87.84
21781;BME280;52576;53.614;9.894;2023-02-13T02:40:57;103507.03;;;6.25;87.77
21781;BME280;52576;53.614;9.894;2023-02-13T02:43:23;103515.69;;;6.26;87.73
21781;BME280;52576;53.614;9.894;2023-02-13T02:45:34;103513.97;;;6.25;87.68
21781;BME280;52576;53.614;9.894;2023-02-13T02:47:52;103517.44;;;6.25;87.58
21781;BME280;52576;53.614;9.894;2023-02-13T02:50:32;103514.00;;;6.23;87.45
21781;BME280;52576;53.614;9.894;2023-02-13T02:52:47;103505.28;;;6.24;87.45
21781;BME280;52576;53.614;9.894;2023-02-13T02:55:03;103505.31;;;6.23;87.43
21781;BME280;52576;53.614;9.894;2023-02-13T02:57:16;103512.28;;;6.22;87.36
21781;BME280;52576;53.614;9.894;2023-02-13T02:59:29;103510.53;;;6.21;87.08
21781;BME280;52576;53.614;9.894;2023-02-13T03:01:52;103507.94;;;6.20;87.14
21781;BME280;52576;53.614;9.894;2023-02-13T03:04:24;103505.34;;;6.18;86.98
21781;BME280;52576;53.614;9.894;2023-02-13T03:06:49;103508.81;;;6.17;86.94
21781;BME280;52576;53.614;9.894;2023-02-13T03:08:56;103502.75;;;6.15;87.09
21781;BME280;52576;53.614;9.894;2023-02-13T03:11:18;103501.03;;;6.14;86.90
21781;BME280;52576;53.614;9.894;2023-02-13T03:13:42;103498.44;;;6.11;86.73
21781;BME280;52576;53.614;9.894;2023-02-13T03:15:47;103504.50;;;6.11;86.57
21781;BME280;52576;53.614;9.894;2023-02-13T03:18:09;103511.44;;;6.09;86.65
21781;BME280;52576;53.614;9.894;2023-02-13T03:20:45;103512.31;;;6.10;86.70
21781;BME280;52576;53.614;9.894;2023-02-13T03:23:12;103500.16;;;6.09;86.79
21781;BME280;52576;53.614;9.894;2023-02-13T03:25:20;103509.72;;;6.10;86.73
21781;BME280;52576;53.614;9.894;2023-02-13T03:27:37;103505.38;;;6.09;86.67
21781;BME280;52576;53.614;9.894;2023-02-13T03:30:04;103517.53;;;6.10;86.68
21781;BME280;52576;53.614;9.894;2023-02-13T03:32:20;103511.44;;;6.09;86.42
21781;BME280;52576;53.614;9.894;2023-02-13T03:34:29;103507.97;;;6.09;86.45
21781;BME280;52576;53.614;9.894;2023-02-13T03:36:59;103508.84;;;6.08;86.35
21781;BME280;52576;53.614;9.894;2023-02-13T03:39:22;103515.78;;;6.09;86.52
21781;BME280;52576;53.614;9.894;2023-02-13T03:41:37;103510.59;;;6.09;86.43
21781;BME280;52576;53.614;9.894;2023-02-13T03:43:47;103519.25;;;6.08;86.33
21781;BME280;52576;53.614;9.894;2023-02-13T03:45:53;103529.69;;;6.08;86.35
21781;BME280;52576;53.614;9.894;2023-02-13T03:48:00;103531.41;;;6.09;86.13
21781;BME280;52576;53.614;9.894;2023-02-13T03:50:12;103522.75;;;6.08;86.23
21781;BME280;52576;53.614;9.894;2023-02-13T03:52:21;103524.47;;;6.08;86.08
21781;BME280;52576;53.614;9.894;2023-02-13T03:54:32;103528.81;;;6.07;86.09
21781;BME280;52576;53.614;9.894;2023-02-13T03:56:55;103519.28;;;6.05;85.94
21781;BME280;52576;53.614;9.894;2023-02-13T03:59:20;103521.00;;;6.04;86.01
21781;BME280;52576;53.614;9.894;2023-02-13T04:01:26;103517.53;;;6.04;86.04
21781;BME280;52576;53.614;9.894;2023-02-13T04:03:36;103514.06;;;6.02;85.96
21781;BME280;52576;53.614;9.894;2023-02-13T04:05:46;103517.56;;;6.01;85.94
21781;BME280;52576;53.614;9.894;2023-02-13T04:07:52;103521.88;;;6.00;85.85
21781;BME280;52576;53.614;9.894;2023-02-13T04:09:58;103523.63;;;6.01;86.06
21781;BME280;52576;53.614;9.894;2023-02-13T04:12:08;103521.03;;;6.00;86.06
21781;BME280;52576;53.614;9.894;2023-02-13T04:14:18;103519.28;;;6.00;85.95
21781;BME280;52576;53.614;9.894;2023-02-13T04:16:26;103522.75;;;6.01;86.15
21781;BME280;52576;53.614;9.894;2023-02-13T04:18:32;103519.28;;;6.02;86.09
21781;BME280;52576;53.614;9.894;2023-02-13T04:20:37;103514.94;;;6.01;86.24
21781;BME280;52576;53.614;9.894;2023-02-13T04:22:42;103514.06;;;6.02;85.89
21781;BME280;52576;53.614;9.894;2023-02-13T04:24:47;103517.56;;;6.01;85.87
21781;BME280;52576;53.614;9.894;2023-02-13T04:26:51;103511.47;;;6.00;86.05
21781;BME280;52576;53.614;9.894;2023-02-13T04:28:55;103516.69;;;6.00;86.06
21781;BME280;52576;53.614;9.894;2023-02-13T04:30:58;103517.56;;;5.98;85.92
21781;BME280;52576;53.614;9.894;2023-02-13T04:33:02;103508.88;;;5.99;85.98
21781;BME280;52576;53.614;9.894;2023-02-13T04:35:06;103508.00;;;5.98;85.86
21781;BME280;52576;53.614;9.894;2023-02-13T04:37:10;103514.97;;;5.98;85.84
21781;BME280;52576;53.614;9.894;2023-02-13T04:39:13;103522.75;;;5.98;85.81
21781;BME280;52576;53.614;9.894;2023-02-13T04:41:18;103516.72;;;5.97;85.75
21781;BME280;52576;53.614;9.894;2023-02-13T04:43:21;103510.66;;;5.97;85.83
21781;BME280;52576;53.614;9.894;2023-02-13T04:45:26;103517.59;;;5.96;85.69
21781;BME280;52576;53.614;9.894;2023-02-13T04:47:29;103511.53;;;5.96;85.67
21781;BME280;52576;53.614;9.894;2023-02-13T04:49:32;103506.31;;;5.96;85.64
21781;BME280;52576;53.614;9.894;2023-02-13T04:51:35;103514.13;;;5.96;85.61
21781;BME280;52576;53.614;9.894;2023-02-13T04:53:39;103508.91;;;5.96;85.65
21781;BME280;52576;53.614;9.894;2023-02-13T04:55:42;103508.91;;;5.96;85.72
21781;BME280;52576;53.614;9.894;2023-02-13T04:57:47;103519.34;;;5.96;85.54
21781;BME280;52576;53.614;9.894;2023-02-13T04:59:50;103514.13;;;5.96;85.53
21781;BME280;52576;53.614;9.894;2023-02-13T05:01:53;103508.91;;;5.96;85.46
21781;BME280;52576;53.614;9.894;2023-02-13T05:03:56;103512.34;;;5.98;85.54
21781;BME280;52576;53.614;9.894;2023-02-13T05:06:00;103503.72;;;5.97;85.46
21781;BME280;52576;53.614;9.894;2023-02-13T05:08:03;103502.84;;;5.97;85.46
21781;BME280;52576;53.614;9.894;2023-02-13T05:10:08;103509.78;;;5.96;85.30
21781;BME280;52576;53.614;9.894;2023-02-13T05:12:11;103507.19;;;5.95;85.42
21781;BME280;52576;53.614;9.894;2023-02-13T05:14:16;103512.41;;;5.95;85.23
21781;BME280;52576;53.614;9.894;2023-02-13T05:16:19;103504.59;;;5.93;85.25
21781;BME280;52576;53.614;9.894;2023-02-13T05:18:22;103508.06;;;5.92;85.31
21781;BME280;52576;53.614;9.894;2023-02-13T05:20:26;103508.94;;;5.93;85.20
21781;BME280;52576;53.614;9.894;2023-02-13T05:22:29;103506.31;;;5.93;85.45
21781;BME280;52576;53.614;9.894;2023-02-13T05:24:50;103506.31;;;5.93;85.51
21781;BME280;52576;53.614;9.894;2023-02-13T05:26:53;103511.53;;;5.94;85.40
21781;BME280;52576;53.614;9.894;2023-02-13T05:28:56;103512.41;;;5.95;85.51
21781;BME280;52576;53.614;9.894;2023-02-13T05:31:18;103515.84;;;5.97;85.56
21781;BME280;52576;53.614;9.894;2023-02-13T05:33:22;103512.34;;;5.98;85.48
21781;BME280;52576;53.614;9.894;2023-02-13T05:35:26;103524.50;;;5.99;85.35
21781;BME280;52576;53.614;9.894;2023-02-13T05:37:29;103521.88;;;6.00;85.52
21781;BME280;52576;53.614;9.894;2023-02-13T05:39:32;103514.06;;;6.02;85.34
21781;BME280;52576;53.614;9.894;2023-02-13T05:41:36;103519.28;;;6.02;85.25
21781;BME280;52576;53.614;9.894;2023-02-13T05:43:39;103509.75;;;6.01;85.16
21781;BME280;52576;53.614;9.894;2023-02-13T05:45:42;103510.59;;;6.00;85.28
21781;BME280;52576;53.614;9.894;2023-02-13T05:47:47;103508.88;;;5.99;85.14
21781;BME280;52576;53.614;9.894;2023-02-13T05:49:50;103515.84;;;5.97;85.06
21781;BME280;52576;53.614;9.894;2023-02-13T05:51:54;103514.13;;;5.96;85.06
21781;BME280;52576;53.614;9.894;2023-02-13T05:53:57;103520.19;;;5.95;85.20
21781;BME280;52576;53.614;9.894;2023-02-13T05:56:01;103521.06;;;5.94;85.12
21781;BME280;52576;53.614;9.894;2023-02-13T05:58:05;103515.00;;;5.93;85.30
21781;BME280;52576;53.614;9.894;2023-02-13T06:00:11;103523.69;;;5.94;85.46
21781;BME280;52576;53.614;9.894;2023-02-13T06:02:14;103528.00;;;5.95;85.35
21781;BME280;52576;53.614;9.894;2023-02-13T06:04:19;103529.75;;;5.96;85.34
21781;BME280;52576;53.614;9.894;2023-02-13T06:06:22;103523.66;;;5.97;85.30
21781;BME280;52576;53.614;9.894;2023-02-13T06:08:26;103529.75;;;5.96;85.24
21781;BME280;52576;53.614;9.894;2023-02-13T06:10:29;103535.81;;;5.95;85.07
21781;BME280;52576;53.614;9.894;2023-02-13T06:12:32;103529.75;;;5.93;85.14
21781;BME280;52576;53.614;9.894;2023-02-13T06:14:36;103522.81;;;5.92;85.14
21781;BME280;52576;53.614;9.894;2023-02-13T06:16:40;103535.84;;;5.90;85.18
21781;BME280;52576;53.614;9.894;2023-02-13T06:18:43;103530.63;;;5.89;85.16
21781;BME280;52576;53.614;9.894;2023-02-13T06:20:48;103539.31;;;5.89;85.23
21781;BME280;52576;53.614;9.894;2023-02-13T06:22:52;103538.44;;;5.89;85.10
21781;BME280;52576;53.614;9.894;2023-02-13T06:24:55;103541.03;;;5.89;85.29
21781;BME280;52576;53.614;9.894;2023-02-13T06:26:58;103532.38;;;5.90;85.32
21781;BME280;52576;53.614;9.894;2023-02-13T06:29:01;103539.31;;;5.91;85.31
21781;BME280;52576;53.614;9.894;2023-02-13T06:31:07;103541.03;;;5.92;85.53
21781;BME280;52576;53.614;9.894;2023-02-13T06:33:11;103539.28;;;5.92;85.43
21781;BME280;52576;53.614;9.894;2023-02-13T06:35:15;103543.63;;;5.93;85.43
21781;BME280;52576;53.614;9.894;2023-02-13T06:37:19;103550.56;;;5.94;85.32
21781;BME280;52576;53.614;9.894;2023-02-13T06:39:22;103549.72;;;5.92;85.19
21781;BME280;52576;53.614;9.894;2023-02-13T06:41:26;103554.91;;;5.91;85.20
21781;BME280;52576;53.614;9.894;2023-02-13T06:43:29;103550.59;;;5.90;85.21
21781;BME280;52576;53.614;9.894;2023-02-13T06:45:32;103550.59;;;5.90;85.17
21781;BME280;52576;53.614;9.894;2023-02-13T06:47:40;103552.28;;;5.88;85.00
21781;BME280;52576;53.614;9.894;2023-02-13T06:49:43;103555.75;;;5.87;84.84
21781;BME280;52576;53.614;9.894;2023-02-13T06:51:46;103560.09;;;5.86;84.88
21781;BME280;52576;53.614;9.894;2023-02-13T06:53:51;103567.91;;;5.88;85.00
21781;BME280;52576;53.614;9.894;2023-02-13T06:55:55;103564.44;;;5.86;84.96
21781;BME280;52576;53.614;9.894;2023-02-13T06:58:01;103569.66;;;5.86;84.86
21781;BME280;52576;53.614;9.894;2023-02-13T07:00:06;103567.91;;;5.86;84.78
21781;BME280;52576;53.614;9.894;2023-02-13T07:02:09;103574.84;;;5.86;84.76
21781;BME280;52576;53.614;9.894;2023-02-13T07:04:13;103580.06;;;5.86;84.89
21781;BME280;52576;53.614;9.894;2023-02-13T07:06:17;103582.66;;;5.86;84.82
21781;BME280;52576;53.614;9.894;2023-02-13T07:08:20;103579.19;;;5.87;84.71
21781;BME280;52576;53.614;9.894;2023-02-13T07:10:25;103586.13;;;5.88;84.87
21781;BME280;52576;53.614;9.894;2023-02-13T07:12:28;103585.28;;;5.89;84.71
21781;BME280;52576;53.614;9.894;2023-02-13T07:14:31;103587.03;;;5.91;84.59
21781;BME280;52576;53.614;9.894;2023-02-13T07:16:35;103593.97;;;5.91;84.45
21781;BME280;52576;53.614;9.894;2023-02-13T07:18:38;103589.63;;;5.90;84.54
21781;BME280;52576;53.614;9.894;2023-02-13T07:20:41;103591.38;;;5.91;84.57
21781;BME280;52576;53.614;9.894;2023-02-13T07:22:44;103589.63;;;5.91;84.64
21781;BME280;52576;53.614;9.894;2023-02-13T07:24:48;103585.28;;;5.92;84.67
21781;BME280;52576;53.614;9.894;2023-02-13T07:26:52;103578.34;;;5.91;84.73
21781;BME280;52576;53.614;9.894;2023-02-13T07:28:55;103587.03;;;5.93;84.80
21781;BME280;52576;53.614;9.894;2023-02-13T07:31:11;103575.75;;;5.94;84.75
21781;BME280;52576;53.614;9.894;2023-02-13T07:33:15;103579.22;;;5.96;84.84
21781;BME280;52576;53.614;9.894;2023-02-13T07:35:18;103577.44;;;5.98;84.66
21781;BME280;52576;53.614;9.894;2023-02-13T07:37:22;103590.44;;;5.98;84.81
21781;BME280;52576;53.614;9.894;2023-02-13T07:39:25;103590.44;;;5.98;84.71
21781;BME280;52576;53.614;9.894;2023-02-13T07:41:28;103584.38;;;5.99;84.71
21781;BME280;52576;53.614;9.894;2023-02-13T07:43:33;103586.13;;;5.98;84.66
21781;BME280;52576;53.614;9.894;2023-02-13T07:45:36;103596.53;;;5.98;84.75
21781;BME280;52576;53.614;9.894;2023-02-13T07:47:40;103589.63;;;5.97;84.59
21781;BME280;52576;53.614;9.894;2023-02-13T07:49:43;103595.69;;;5.96;84.68
21781;BME280;52576;53.614;9.894;2023-02-13T07:51:46;103601.78;;;5.97;84.75
21781;BME280;52576;53.614;9.894;2023-02-13T07:53:49;103605.25;;;5.96;84.76
21781;BME280;52576;53.614;9.894;2023-02-13T07:55:53;103602.63;;;5.96;84.61
21781;BME280;52576;53.614;9.894;2023-02-13T07:57:59;103600.91;;;5.96;84.51
21781;BME280;52576;53.614;9.894;2023-02-13T08:00:05;103597.44;;;5.96;84.91
21781;BME280;52576;53.614;9.894;2023-02-13T08:02:13;103602.63;;;5.96;84.97
21781;BME280;52576;53.614;9.894;2023-02-13T08:04:16;103606.97;;;5.97;85.04
21781;BME280;52576;53.614;9.894;2023-02-13T08:06:20;103606.06;;;5.98;85.15
21781;BME280;52576;53.614;9.894;2023-02-13T08:08:23;103611.28;;;5.98;84.95
21781;BME280;52576;53.614;9.894;2023-02-13T08:10:27;103606.06;;;5.98;85.03
21781;BME280;52576;53.614;9.894;2023-02-13T08:12:47;103600.88;;;5.98;84.99
21781;BME280;52576;53.614;9.894;2023-02-13T08:14:52;103607.81;;;5.99;85.00
21781;BME280;52576;53.614;9.894;2023-02-13T08:16:57;103608.69;;;5.99;85.06
21781;BME280;52576;53.614;9.894;2023-02-13T08:19:01;103602.59;;;6.02;85.05
21781;BME280;52576;53.614;9.894;2023-02-13T08:21:04;103605.19;;;6.02;84.92
21781;BME280;52576;53.614;9.894;2023-02-13T08:23:10;103605.19;;;6.03;85.03
21781;BME280;52576;53.614;9.894;2023-02-13T08:25:13;103602.59;;;6.05;85.05
21781;BME280;52576;53.614;9.894;2023-02-13T08:27:16;103605.19;;;6.08;85.05
21781;BME280;52576;53.614;9.894;2023-02-13T08:29:20;103595.63;;;6.10;84.95
21781;BME280;52576;53.614;9.894;2023-02-13T08:31:23;103598.25;;;6.13;84.99
21781;BME280;52576;53.614;9.894;2023-02-13T08:33:29;103604.31;;;6.15;85.00
21781;BME280;52576;53.614;9.894;2023-02-13T08:35:32;103602.56;;;6.17;84.78
21781;BME280;52576;53.614;9.894;2023-02-13T08:37:35;103600.84;;;6.19;84.66
21781;BME280;52576;53.614;9.894;2023-02-13T08:39:38;103602.56;;;6.22;84.72
21781;BME280;52576;53.614;9.894;2023-02-13T08:41:42;103607.72;;;6.25;84.71
21781;BME280;52576;53.614;9.894;2023-02-13T08:43:45;103606.00;;;6.25;84.60
21781;BME280;52576;53.614;9.894;2023-02-13T08:45:48;103606.00;;;6.27;84.35
21781;BME280;52576;53.614;9.894;2023-02-13T08:47:55;103614.66;;;6.27;84.10
21781;BME280;52576;53.614;9.894;2023-02-13T08:49:59;103610.31;;;6.28;84.17
21781;BME280;52576;53.614;9.894;2023-02-13T08:52:03;103614.66;;;6.29;84.05
21781;BME280;52576;53.614;9.894;2023-02-13T08:54:06;103612.94;;;6.29;83.89
21781;BME280;52576;53.614;9.894;2023-02-13T08:56:10;103612.94;;;6.29;83.79
21781;BME280;52576;53.614;9.894;2023-02-13T08:58:13;103611.19;;;6.31;83.50
21781;BME280;52576;53.614;9.894;2023-02-13T09:00:17;103612.91;;;6.32;83.61
21781;BME280;52576;53.614;9.894;2023-02-13T09:02:20;103605.97;;;6.33;83.44
21781;BME280;52576;53.614;9.894;2023-02-13T09:04:23;103605.97;;;6.34;83.29
21781;BME280;52576;53.614;9.894;2023-02-13T09:06:28;103597.28;;;6.35;82.97
21781;BME280;52576;53.614;9.894;2023-02-13T09:08:31;103606.84;;;6.35;82.78
21781;BME280;52576;53.614;9.894;2023-02-13T09:10:36;103603.34;;;6.36;82.77
21781;BME280;52576;53.614;9.894;2023-02-13T09:12:40;103602.50;;;6.35;82.50
21781;BME280;52576;53.614;9.894;2023-02-13T09:14:43;103609.44;;;6.36;82.45
21781;BME280;52576;53.614;9.894;2023-02-13T09:16:46;103603.34;;;6.37;82.35
21781;BME280;52576;53.614;9.894;2023-02-13T09:18:50;103609.41;;;6.41;82.25
21781;BME280;52576;53.614;9.894;2023-02-13T09:20:58;103609.41;;;6.42;82.14
21781;BME280;52576;53.614;9.894;2023-02-13T09:23:03;103606.81;;;6.45;81.83
21781;BME280;52576;53.614;9.894;2023-02-13T09:25:06;103603.31;;;6.46;81.53
21781;BME280;52576;53.614;9.894;2023-02-13T09:27:10;103608.53;;;6.46;81.45
21781;BME280;52576;53.614;9.894;2023-02-13T09:29:13;103605.94;;;6.46;81.38
21781;BME280;52576;53.614;9.894;2023-02-13T09:31:19;103598.97;;;6.49;81.13
21781;BME280;52576;53.614;9.894;2023-02-13T09:33:25;103603.28;;;6.51;80.77
21781;BME280;52576;53.614;9.894;2023-02-13T09:35:28;103599.78;;;6.54;80.40
21781;BME280;52576;53.614;9.894;2023-02-13T09:37:31;103595.44;;;6.56;80.39
21781;BME280;52576;53.614;9.894;2023-02-13T09:39:36;103597.16;;;6.60;80.41
21781;BME280;52576;53.614;9.894;2023-02-13T09:41:41;103594.53;;;6.64;80.30
21781;BME280;52576;53.614;9.894;2023-02-13T09:43:49;103610.16;;;6.69;80.18
21781;BME280;52576;53.614;9.894;2023-02-13T09:45:55;103614.47;;;6.73;80.01
21781;BME280;52576;53.614;9.894;2023-02-13T09:48:00;103615.31;;;6.76;79.88
21781;BME280;52576;53.614;9.894;2023-02-13T09:50:06;103614.44;;;6.79;79.56
21781;BME280;52576;53.614;9.894;2023-02-13T09:52:14;103611.81;;;6.82;79.11
21781;BME280;52576;53.614;9.894;2023-02-13T09:54:17;103613.53;;;6.85;78.97
21781;BME280;52576;53.614;9.894;2023-02-13T09:56:34;103615.25;;;6.87;78.70
21781;BME280;52576;53.614;9.894;2023-02-13T09:58:42;103609.16;;;6.88;78.45
21781;BME280;52576;53.614;9.894;2023-02-13T10:00:49;103610.91;;;6.91;78.38
21781;BME280;52576;53.614;9.894;2023-02-13T10:03:20;103616.97;;;6.91;78.23
21781;BME280;52576;53.614;9.894;2023-02-13T10:05:45;103609.16;;;6.91;78.02
21781;BME280;52576;53.614;9.894;2023-02-13T10:07:56;103607.41;;;6.90;77.83
21781;BME280;52576;53.614;9.894;2023-02-13T10:10:07;103610.91;;;6.89;77.62
21781;BME280;52576;53.614;9.894;2023-02-13T10:12:42;103611.75;;;6.91;77.63
21781;BME280;52576;53.614;9.894;2023-02-13T10:15:02;103603.94;;;6.91;77.55
21781;BME280;52576;53.614;9.894;2023-02-13T10:17:15;103609.16;;;6.91;77.52
21781;BME280;52576;53.614;9.894;2023-02-13T10:19:29;103607.41;;;6.93;77.39
21781;BME280;52576;53.614;9.894;2023-02-13T10:21:40;103602.19;;;6.93;77.23
21781;BME280;52576;53.614;9.894;2023-02-13T10:23:53;103602.19;;;6.93;76.99
21781;BME280;52576;53.614;9.894;2023-02-13T10:26:01;103604.78;;;6.95;77.05
21781;BME280;52576;53.614;9.894;2023-02-13T10:28:10;103595.22;;;6.98;76.99
21781;BME280;52576;53.614;9.894;2023-02-13T10:30:17;103593.47;;;7.00;77.12
21781;BME280;52576;53.614;9.894;2023-02-13T10:32:27;103601.22;;;7.05;76.81
21781;BME280;52576;53.614;9.894;2023-02-13T10:34:36;103593.38;;;7.09;76.65
21781;BME280;52576;53.614;9.894;2023-02-13T10:36:44;103604.66;;;7.11;76.55
21781;BME280;52576;53.614;9.894;2023-02-13T10:38:56;103600.31;;;7.10;76.46
21781;BME280;52576;53.614;9.894;2023-02-13T10:41:05;103584.66;;;7.10;76.38
21781;BME280;52576;53.614;9.894;2023-02-13T10:43:19;103587.28;;;7.09;76.22
21781;BME280;52576;53.614;9.894;2023-02-13T10:45:41;103588.16;;;7.11;76.46
21781;BME280;52576;53.614;9.894;2023-02-13T10:47:56;103589.88;;;7.13;76.57
21781;BME280;52576;53.614;9.894;2023-02-13T10:50:13;103597.66;;;7.18;76.46
21781;BME280;52576;53.614;9.894;2023-02-13T10:52:31;103598.50;;;7.22;76.45
21781;BME280;52576;53.614;9.894;2023-02-13T10:54:53;103589.78;;;7.24;76.30
21781;BME280;52576;53.614;9.894;2023-02-13T10:57:07;103587.19;;;7.24;76.07
21781;BME280;52576;53.614;9.894;2023-02-13T10:59:29;103588.91;;;7.25;76.10
21781;BME280;52576;53.614;9.894;2023-02-13T11:01:39;103584.56;;;7.27;75.97
21781;BME280;52576;53.614;9.894;2023-02-13T11:03:48;103584.50;;;7.29;75.95
21781;BME280;52576;53.614;9.894;2023-02-13T11:06:06;103578.44;;;7.28;75.62
21781;BME280;52576;53.614;9.894;2023-02-13T11:08:17;103576.69;;;7.29;75.52
21781;BME280;52576;53.614;9.894;2023-02-13T11:10:22;103578.41;;;7.31;75.47
21781;BME280;52576;53.614;9.894;2023-02-13T11:12:27;103579.28;;;7.32;75.45
21781;BME280;52576;53.614;9.894;2023-02-13T11:14:32;103586.22;;;7.33;75.58
21781;BME280;52576;53.614;9.894;2023-02-13T11:16:43;103588.84;;;7.33;75.40
21781;BME280;52576;53.614;9.894;2023-02-13T11:18:49;103584.50;;;7.32;75.62